N894A SULS-SADF
Flight info
| Callsign | N894A |
|---|---|
| Flight time | 0h 52m |
| Altitude | 18000 |
| Route | DCT LUCIO A306 DAGUS UGIMI ESLAN PTA EZE DCT |
| Aircraft | TBM8/L-SG/C |
Departure
| Time | 2026-04-29 02:39 |
|---|---|
| Airport | Capitan Corbeta CA Curbelo International Airport (SULS) |
Arrival
| Time | 2026-04-29 03:31 |
|---|---|
| Airport | San Fernando Airport (SADF) |
| Time | Latitude | Longitude | Altitude | Speed | Heading |
|---|---|---|---|---|---|
| 2026-04-29 02:39 | -34.88450 | -55.20228 | 4974 ft | 200 kts | 254° |
| 2026-04-29 02:39 | -34.88878 | -55.21874 | 4977 ft | 208 kts | 253° |
| 2026-04-29 02:39 | -34.89317 | -55.23574 | 4977 ft | 212 kts | 254° |
| 2026-04-29 02:39 | -34.89763 | -55.25305 | 4978 ft | 216 kts | 254° |
| 2026-04-29 02:40 | -34.90200 | -55.27005 | 5233 ft | 206 kts | 254° |
| 2026-04-29 02:40 | -34.90618 | -55.28619 | 5636 ft | 195 kts | 254° |
| 2026-04-29 02:40 | -34.91012 | -55.30141 | 6136 ft | 183 kts | 254° |
| 2026-04-29 02:40 | -34.91384 | -55.31581 | 6627 ft | 174 kts | 254° |
| 2026-04-29 02:41 | -34.91740 | -55.32962 | 7099 ft | 167 kts | 254° |
| 2026-04-29 02:41 | -34.92080 | -55.34287 | 7565 ft | 161 kts | 254° |
| 2026-04-29 02:41 | -34.92409 | -55.35563 | 8063 ft | 155 kts | 253° |
| 2026-04-29 02:41 | -34.92725 | -55.36795 | 8557 ft | 150 kts | 253° |
| 2026-04-29 02:42 | -34.93031 | -55.37983 | 9057 ft | 145 kts | 253° |
| 2026-04-29 02:42 | -34.93326 | -55.39131 | 9566 ft | 139 kts | 253° |
| 2026-04-29 02:42 | -34.93606 | -55.40220 | 10047 ft | 134 kts | 253° |
| 2026-04-29 02:42 | -34.93877 | -55.41274 | 10511 ft | 127 kts | 253° |
| 2026-04-29 02:43 | -34.94136 | -55.42276 | 10971 ft | 120 kts | 253° |
| 2026-04-29 02:43 | -34.94377 | -55.43211 | 11449 ft | 111 kts | 253° |
| 2026-04-29 02:43 | -34.94598 | -55.44068 | 11923 ft | 100 kts | 253° |
| 2026-04-29 02:43 | -34.94794 | -55.44814 | 12386 ft | 84 kts | 252° |
| 2026-04-29 02:44 | -34.94956 | -55.45391 | 12808 ft | 60 kts | 250° |
| 2026-04-29 02:44 | -34.95208 | -55.45970 | 12644 ft | 98 kts | 244° |
| 2026-04-29 02:44 | -34.95412 | -55.46804 | 12857 ft | 102 kts | 259° |
| 2026-04-29 02:44 | -34.95570 | -55.47634 | 13182 ft | 101 kts | 256° |
| 2026-04-29 02:45 | -34.95637 | -55.48471 | 13463 ft | 101 kts | 267° |
| 2026-04-29 02:45 | -34.95654 | -55.49330 | 13744 ft | 102 kts | 264° |
| 2026-04-29 02:45 | -34.95672 | -55.50202 | 13990 ft | 104 kts | 265° |
| 2026-04-29 02:45 | -34.95693 | -55.51089 | 14223 ft | 106 kts | 265° |
| 2026-04-29 02:46 | -34.95714 | -55.51996 | 14464 ft | 108 kts | 265° |
| 2026-04-29 02:46 | -34.95735 | -55.52920 | 14706 ft | 110 kts | 265° |
| 2026-04-29 02:46 | -34.95757 | -55.53866 | 14945 ft | 113 kts | 264° |
| 2026-04-29 02:46 | -34.95779 | -55.54836 | 15193 ft | 116 kts | 264° |
| 2026-04-29 02:47 | -34.95805 | -55.55833 | 15434 ft | 119 kts | 264° |
| 2026-04-29 02:47 | -34.95829 | -55.56854 | 15684 ft | 122 kts | 264° |
| 2026-04-29 02:47 | -34.95853 | -55.57891 | 15934 ft | 126 kts | 264° |
| 2026-04-29 02:47 | -34.95878 | -55.58967 | 16186 ft | 129 kts | 264° |
| 2026-04-29 02:48 | -34.95905 | -55.60076 | 16442 ft | 132 kts | 264° |
| 2026-04-29 02:48 | -34.95932 | -55.61211 | 16701 ft | 136 kts | 264° |
| 2026-04-29 02:48 | -34.95959 | -55.62382 | 16962 ft | 140 kts | 264° |
| 2026-04-29 02:48 | -34.95988 | -55.63579 | 17222 ft | 143 kts | 264° |
| 2026-04-29 02:49 | -34.96016 | -55.64809 | 17484 ft | 147 kts | 264° |
| 2026-04-29 02:49 | -34.96046 | -55.66067 | 17750 ft | 150 kts | 264° |
| 2026-04-29 02:49 | -34.96076 | -55.67356 | 17975 ft | 156 kts | 264° |
| 2026-04-29 02:49 | -34.96106 | -55.68732 | 17984 ft | 173 kts | 265° |
| 2026-04-29 02:50 | -34.96139 | -55.70263 | 17984 ft | 188 kts | 265° |
| 2026-04-29 02:50 | -34.96177 | -55.71914 | 17982 ft | 201 kts | 265° |
| 2026-04-29 02:50 | -34.96218 | -55.73665 | 17982 ft | 212 kts | 266° |
| 2026-04-29 02:50 | -34.96259 | -55.75503 | 17981 ft | 221 kts | 266° |
| 2026-04-29 02:51 | -34.96303 | -55.77413 | 17980 ft | 229 kts | 266° |
| 2026-04-29 02:51 | -34.96346 | -55.79372 | 17981 ft | 234 kts | 266° |
| 2026-04-29 02:51 | -34.96390 | -55.81379 | 17983 ft | 239 kts | 266° |
| 2026-04-29 02:51 | -34.96435 | -55.83419 | 17976 ft | 242 kts | 266° |
| 2026-04-29 02:52 | -34.96479 | -55.85457 | 17980 ft | 245 kts | 266° |
| 2026-04-29 02:52 | -34.96515 | -55.87517 | 17979 ft | 241 kts | 267° |
| 2026-04-29 02:52 | -34.96557 | -55.89548 | 17977 ft | 238 kts | 266° |
| 2026-04-29 02:52 | -34.96606 | -55.91555 | 17975 ft | 236 kts | 266° |
| 2026-04-29 02:53 | -34.96650 | -55.93542 | 17972 ft | 234 kts | 266° |
| 2026-04-29 02:53 | -34.96692 | -55.95519 | 17968 ft | 233 kts | 266° |
| 2026-04-29 02:53 | -34.96733 | -55.97486 | 17967 ft | 232 kts | 266° |
| 2026-04-29 02:53 | -34.96773 | -55.99444 | 17967 ft | 231 kts | 266° |
| 2026-04-29 02:54 | -34.96814 | -56.01395 | 17965 ft | 230 kts | 266° |
| 2026-04-29 02:54 | -34.96853 | -56.03346 | 17962 ft | 230 kts | 266° |
| 2026-04-29 02:54 | -34.96893 | -56.05289 | 17963 ft | 229 kts | 266° |
| 2026-04-29 02:54 | -34.96931 | -56.07203 | 17962 ft | 229 kts | 266° |
| 2026-04-29 02:55 | -34.96970 | -56.09145 | 17963 ft | 229 kts | 266° |
| 2026-04-29 02:55 | -34.97008 | -56.11086 | 17962 ft | 229 kts | 266° |
| 2026-04-29 02:55 | -34.97046 | -56.13025 | 17963 ft | 229 kts | 266° |
| 2026-04-29 02:55 | -34.97084 | -56.14965 | 17962 ft | 229 kts | 266° |
| 2026-04-29 02:56 | -34.97121 | -56.16904 | 17964 ft | 229 kts | 266° |
| 2026-04-29 02:56 | -34.97158 | -56.18841 | 17963 ft | 229 kts | 266° |
| 2026-04-29 02:56 | -34.97195 | -56.20780 | 17960 ft | 229 kts | 267° |
| 2026-04-29 02:56 | -34.97232 | -56.22718 | 17962 ft | 229 kts | 267° |
| 2026-04-29 02:57 | -34.97267 | -56.24628 | 17960 ft | 229 kts | 267° |
| 2026-04-29 02:57 | -34.97303 | -56.26566 | 17961 ft | 229 kts | 267° |
| 2026-04-29 02:57 | -34.97339 | -56.28503 | 17963 ft | 229 kts | 267° |
| 2026-04-29 02:57 | -34.97374 | -56.30438 | 17959 ft | 229 kts | 267° |
| 2026-04-29 02:58 | -34.97409 | -56.32374 | 17959 ft | 229 kts | 267° |
| 2026-04-29 02:58 | -34.97444 | -56.34311 | 17958 ft | 228 kts | 267° |
| 2026-04-29 02:58 | -34.97477 | -56.36247 | 17960 ft | 228 kts | 267° |
| 2026-04-29 02:58 | -34.97512 | -56.38184 | 17956 ft | 228 kts | 267° |
| 2026-04-29 02:59 | -34.97545 | -56.40094 | 17953 ft | 228 kts | 267° |
| 2026-04-29 02:59 | -34.97578 | -56.42029 | 17954 ft | 228 kts | 267° |
| 2026-04-29 02:59 | -34.97611 | -56.43965 | 17952 ft | 228 kts | 267° |
| 2026-04-29 02:59 | -34.97644 | -56.45901 | 17953 ft | 228 kts | 267° |
| 2026-04-29 03:00 | -34.97676 | -56.47835 | 17954 ft | 228 kts | 267° |
| 2026-04-29 03:00 | -34.97709 | -56.49768 | 17953 ft | 228 kts | 267° |
| 2026-04-29 03:00 | -34.97740 | -56.51700 | 17956 ft | 228 kts | 267° |
| 2026-04-29 03:00 | -34.97771 | -56.53633 | 17952 ft | 228 kts | 267° |
| 2026-04-29 03:01 | -34.97803 | -56.55566 | 17953 ft | 228 kts | 267° |
| 2026-04-29 03:01 | -34.97834 | -56.57498 | 17952 ft | 228 kts | 267° |
| 2026-04-29 03:01 | -34.97864 | -56.59430 | 17951 ft | 228 kts | 267° |
| 2026-04-29 03:01 | -34.97894 | -56.61361 | 17953 ft | 228 kts | 267° |
| 2026-04-29 03:02 | -34.97924 | -56.63290 | 17950 ft | 228 kts | 267° |
| 2026-04-29 03:02 | -34.97953 | -56.65197 | 17948 ft | 228 kts | 267° |
| 2026-04-29 03:02 | -34.97982 | -56.67125 | 17952 ft | 228 kts | 267° |
| 2026-04-29 03:02 | -34.98011 | -56.69054 | 17948 ft | 228 kts | 267° |
| 2026-04-29 03:03 | -34.98040 | -56.70983 | 17950 ft | 227 kts | 267° |
| 2026-04-29 03:03 | -34.98068 | -56.72913 | 17950 ft | 227 kts | 267° |
| 2026-04-29 03:03 | -34.98096 | -56.74837 | 17952 ft | 227 kts | 267° |
| 2026-04-29 03:03 | -34.98124 | -56.76767 | 17953 ft | 227 kts | 267° |
| 2026-04-29 03:04 | -34.98152 | -56.78694 | 17952 ft | 227 kts | 267° |
| 2026-04-29 03:04 | -34.98178 | -56.80597 | 17952 ft | 227 kts | 267° |
| 2026-04-29 03:04 | -34.98205 | -56.82523 | 17950 ft | 227 kts | 267° |
| 2026-04-29 03:04 | -34.98232 | -56.84453 | 17950 ft | 227 kts | 267° |
| 2026-04-29 03:05 | -34.98258 | -56.86380 | 17949 ft | 227 kts | 267° |
| 2026-04-29 03:05 | -34.98283 | -56.88306 | 17948 ft | 227 kts | 268° |
| 2026-04-29 03:05 | -34.98244 | -56.90263 | 17991 ft | 235 kts | 269° |
| 2026-04-29 03:05 | -34.98257 | -56.92283 | 17990 ft | 241 kts | 268° |
| 2026-04-29 03:06 | -34.98266 | -56.94352 | 17991 ft | 247 kts | 269° |
| 2026-04-29 03:06 | -34.98257 | -56.96460 | 17993 ft | 250 kts | 270° |
| 2026-04-29 03:06 | -34.98247 | -56.98593 | 17996 ft | 253 kts | 269° |
| 2026-04-29 03:06 | -34.98239 | -57.00745 | 17999 ft | 256 kts | 269° |
| 2026-04-29 03:07 | -34.98231 | -57.02897 | 18002 ft | 257 kts | 269° |
| 2026-04-29 03:07 | -34.98223 | -57.05084 | 18003 ft | 259 kts | 269° |
| 2026-04-29 03:07 | -34.98214 | -57.07281 | 18005 ft | 260 kts | 269° |
| 2026-04-29 03:07 | -34.98204 | -57.09487 | 18006 ft | 260 kts | 270° |
| 2026-04-29 03:08 | -34.98194 | -57.11697 | 18007 ft | 261 kts | 270° |
| 2026-04-29 03:08 | -34.98185 | -57.13913 | 18007 ft | 262 kts | 270° |
| 2026-04-29 03:08 | -34.98173 | -57.16129 | 18007 ft | 262 kts | 270° |
| 2026-04-29 03:08 | -34.98163 | -57.18353 | 18008 ft | 262 kts | 270° |
| 2026-04-29 03:09 | -34.98150 | -57.20577 | 18008 ft | 263 kts | 270° |
| 2026-04-29 03:09 | -34.98139 | -57.22806 | 18008 ft | 263 kts | 270° |
| 2026-04-29 03:09 | -34.98126 | -57.25034 | 18008 ft | 263 kts | 270° |
| 2026-04-29 03:09 | -34.98114 | -57.27234 | 18008 ft | 263 kts | 270° |
| 2026-04-29 03:10 | -34.98100 | -57.29463 | 18008 ft | 263 kts | 270° |
| 2026-04-29 03:10 | -34.98087 | -57.31696 | 18008 ft | 263 kts | 270° |
| 2026-04-29 03:10 | -34.98073 | -57.33926 | 18008 ft | 263 kts | 270° |
| 2026-04-29 03:10 | -34.98059 | -57.36159 | 18008 ft | 263 kts | 270° |
| 2026-04-29 03:11 | -34.98044 | -57.38393 | 18008 ft | 263 kts | 270° |
| 2026-04-29 03:11 | -34.98028 | -57.40624 | 18008 ft | 263 kts | 270° |
| 2026-04-29 03:11 | -34.98013 | -57.42857 | 18008 ft | 263 kts | 270° |
| 2026-04-29 03:11 | -34.97996 | -57.45091 | 18008 ft | 263 kts | 270° |
| 2026-04-29 03:12 | -34.97981 | -57.47293 | 18008 ft | 263 kts | 270° |
| 2026-04-29 03:12 | -34.97883 | -57.49517 | 18000 ft | 264 kts | 280° |
| 2026-04-29 03:12 | -34.97272 | -57.51624 | 17996 ft | 265 kts | 294° |
| 2026-04-29 03:12 | -34.96463 | -57.53641 | 17996 ft | 265 kts | 296° |
| 2026-04-29 03:13 | -34.95677 | -57.55669 | 17998 ft | 265 kts | 292° |
| 2026-04-29 03:13 | -34.94988 | -57.57748 | 18000 ft | 264 kts | 290° |
| 2026-04-29 03:13 | -34.94309 | -57.59829 | 17999 ft | 264 kts | 291° |
| 2026-04-29 03:13 | -34.93604 | -57.61897 | 17999 ft | 264 kts | 292° |
| 2026-04-29 03:14 | -34.92905 | -57.63939 | 17996 ft | 264 kts | 291° |
| 2026-04-29 03:14 | -34.92192 | -57.66035 | 17760 ft | 273 kts | 292° |
| 2026-04-29 03:14 | -34.91451 | -57.68193 | 17417 ft | 275 kts | 292° |
| 2026-04-29 03:14 | -34.90716 | -57.70297 | 17064 ft | 266 kts | 292° |
| 2026-04-29 03:15 | -34.90024 | -57.72363 | 16710 ft | 260 kts | 291° |
| 2026-04-29 03:15 | -34.89347 | -57.74386 | 16363 ft | 256 kts | 292° |
| 2026-04-29 03:15 | -34.88671 | -57.76368 | 16006 ft | 252 kts | 292° |
| 2026-04-29 03:15 | -34.88001 | -57.78325 | 15658 ft | 249 kts | 292° |
| 2026-04-29 03:16 | -34.87342 | -57.80257 | 15350 ft | 245 kts | 292° |
| 2026-04-29 03:16 | -34.86691 | -57.82175 | 15049 ft | 249 kts | 291° |
| 2026-04-29 03:16 | -34.86033 | -57.84150 | 14755 ft | 261 kts | 291° |
| 2026-04-29 03:16 | -34.85318 | -57.86217 | 14461 ft | 268 kts | 292° |
| 2026-04-29 03:17 | -34.84584 | -57.88329 | 14170 ft | 273 kts | 292° |
| 2026-04-29 03:17 | -34.83847 | -57.90478 | 13875 ft | 276 kts | 292° |
| 2026-04-29 03:17 | -34.83108 | -57.92637 | 13581 ft | 278 kts | 292° |
| 2026-04-29 03:17 | -34.82361 | -57.94813 | 13281 ft | 278 kts | 292° |
| 2026-04-29 03:18 | -34.81616 | -57.96984 | 12983 ft | 278 kts | 292° |
| 2026-04-29 03:18 | -34.80869 | -57.99153 | 12688 ft | 278 kts | 292° |
| 2026-04-29 03:18 | -34.80127 | -58.01315 | 12384 ft | 277 kts | 292° |
| 2026-04-29 03:18 | -34.79384 | -58.03474 | 12084 ft | 276 kts | 292° |
| 2026-04-29 03:19 | -34.78644 | -58.05623 | 11784 ft | 275 kts | 292° |
| 2026-04-29 03:19 | -34.77917 | -58.07734 | 11489 ft | 274 kts | 292° |
| 2026-04-29 03:19 | -34.77174 | -58.09888 | 11184 ft | 272 kts | 292° |
| 2026-04-29 03:19 | -34.76442 | -58.12013 | 10883 ft | 271 kts | 292° |
| 2026-04-29 03:20 | -34.75723 | -58.14093 | 10588 ft | 270 kts | 292° |
| 2026-04-29 03:20 | -34.75002 | -58.16182 | 10288 ft | 269 kts | 292° |
| 2026-04-29 03:20 | -34.74275 | -58.18286 | 9986 ft | 268 kts | 292° |
| 2026-04-29 03:20 | -34.73556 | -58.20364 | 9686 ft | 266 kts | 292° |
| 2026-04-29 03:21 | -34.72840 | -58.22435 | 9386 ft | 265 kts | 292° |
| 2026-04-29 03:21 | -34.72125 | -58.24495 | 9085 ft | 264 kts | 292° |
| 2026-04-29 03:21 | -34.71417 | -58.26542 | 8785 ft | 262 kts | 292° |
| 2026-04-29 03:21 | -34.70709 | -58.28579 | 8485 ft | 261 kts | 292° |
| 2026-04-29 03:22 | -34.70004 | -58.30614 | 8184 ft | 260 kts | 292° |
| 2026-04-29 03:22 | -34.69304 | -58.32630 | 7884 ft | 259 kts | 292° |
| 2026-04-29 03:22 | -34.68605 | -58.34638 | 7583 ft | 257 kts | 292° |
| 2026-04-29 03:22 | -34.67910 | -58.36623 | 7256 ft | 253 kts | 292° |
| 2026-04-29 03:23 | -34.67232 | -58.38574 | 6933 ft | 249 kts | 292° |
| 2026-04-29 03:23 | -34.66564 | -58.40506 | 6604 ft | 247 kts | 292° |
| 2026-04-29 03:23 | -34.65898 | -58.42418 | 6278 ft | 245 kts | 292° |
| 2026-04-29 03:23 | -34.65237 | -58.44317 | 5952 ft | 243 kts | 292° |
| 2026-04-29 03:24 | -34.64488 | -58.46118 | 5629 ft | 242 kts | 300° |
| 2026-04-29 03:24 | -34.63496 | -58.47755 | 5296 ft | 241 kts | 316° |
| 2026-04-29 03:24 | -34.62072 | -58.48805 | 4965 ft | 241 kts | 339° |
| 2026-04-29 03:24 | -34.60482 | -58.49437 | 4632 ft | 240 kts | 339° |
| 2026-04-29 03:25 | -34.58972 | -58.50277 | 4316 ft | 238 kts | 330° |
| 2026-04-29 03:25 | -34.57594 | -58.51370 | 3989 ft | 236 kts | 316° |
| 2026-04-29 03:25 | -34.56681 | -58.52954 | 3777 ft | 214 kts | 299° |
| 2026-04-29 03:25 | -34.55935 | -58.54413 | 3283 ft | 197 kts | 302° |
| 2026-04-29 03:26 | -34.55194 | -58.55756 | 3060 ft | 187 kts | 302° |
| 2026-04-29 03:26 | -34.54512 | -58.57130 | 3006 ft | 193 kts | 298° |
| 2026-04-29 03:26 | -34.53867 | -58.58547 | 2984 ft | 196 kts | 298° |
| 2026-04-29 03:26 | -34.53223 | -58.59985 | 2933 ft | 187 kts | 296° |
| 2026-04-29 03:27 | -34.52672 | -58.61343 | 2614 ft | 168 kts | 293° |
| 2026-04-29 03:27 | -34.52239 | -58.62519 | 2233 ft | 139 kts | 294° |
| 2026-04-29 03:27 | -34.51803 | -58.63479 | 1943 ft | 122 kts | 298° |
| 2026-04-29 03:27 | -34.51393 | -58.64410 | 1889 ft | 129 kts | 293° |
| 2026-04-29 03:28 | -34.50988 | -58.65413 | 1714 ft | 135 kts | 308° |
| 2026-04-29 03:28 | -34.50157 | -58.65605 | 1452 ft | 127 kts | 27° |
| 2026-04-29 03:28 | -34.49599 | -58.64838 | 1155 ft | 120 kts | 58° |
| 2026-04-29 03:28 | -34.49122 | -58.63947 | 1013 ft | 133 kts | 55° |
| 2026-04-29 03:29 | -34.48571 | -58.63059 | 860 ft | 118 kts | 52° |
| 2026-04-29 03:29 | -34.48126 | -58.62346 | 699 ft | 101 kts | 52° |
| 2026-04-29 03:29 | -34.47671 | -58.61702 | 520 ft | 99 kts | 45° |
| 2026-04-29 03:29 | -34.47173 | -58.61126 | 389 ft | 99 kts | 43° |
| 2026-04-29 03:30 | -34.46683 | -58.60542 | 272 ft | 99 kts | 45° |
| 2026-04-29 03:30 | -34.46188 | -58.59956 | 138 ft | 100 kts | 44° |
| 2026-04-29 03:30 | -34.45699 | -58.59377 | 27 ft | 93 kts | 43° |
| 2026-04-29 03:30 | -34.45287 | -58.58889 | 24 ft | 70 kts | 44° |
| 2026-04-29 03:31 | -34.44949 | -58.58489 | 24 ft | 12 kts | 45° |
| 2026-04-29 03:31 | -34.44910 | -58.58443 | 23 ft | 6 kts | 44° |
| 2026-04-29 03:31 | -34.44878 | -58.58406 | 24 ft | 8 kts | 43° |
| 2026-04-29 03:32 | -34.44851 | -58.58348 | 22 ft | 6 kts | 98° |
| 2026-04-29 03:32 | -34.44861 | -58.58323 | 22 ft | 2 kts | 131° |
| 2026-04-29 03:32 | -34.44888 | -58.58292 | 23 ft | 10 kts | 142° |
| 2026-04-29 03:32 | -34.44979 | -58.58222 | 22 ft | 15 kts | 146° |
| 2026-04-29 03:33 | -34.45038 | -58.58178 | 22 ft | 5 kts | 133° |
| 2026-04-29 03:33 | -34.45027 | -58.58141 | 22 ft | 6 kts | 60° |
| 2026-04-29 03:33 | -34.45018 | -58.58114 | 22 ft | 2 kts | 128° |
| 2026-04-29 03:33 | -34.45022 | -58.58111 | 22 ft | 0 kts | 152° |
| 2026-04-29 03:34 | -34.45028 | -58.58107 | 22 ft | 0 kts | 149° |